< < Back
Terminal Aerodrome Forecast


Current Version              Previous Versions:   1  2  3  4  5  6  7  8  9  

Terminal Aerodrome Forecast

889
FTUS44 KBMX 211100
TAFBHM
TAF
KBHM 211138Z 2112/2212 05005KT P6SM SCT008 OVC015
      TEMPO 2112/2115 OVC008
     FM211900 12006KT P6SM OVC025
     FM220300 12006KT P6SM OVC012
     FM220900 12005KT 5SM BR OVC008=



Latest METAR

375
SAUS70 KWBC 211200 RRC
MTRBHM
METAR KBHM 211153Z 00000KT 7SM SCT032 06/04 A3019 RMK AO2 SLP224
T00610039 10061 20006 55009


USA.gov is the U.S. government's official web portal to all federal, state and local government web resources and services.